Cotati, CA (94926)

8:19 AM PDT on October 23, 2014 (GMT -0700)
KCAROHNE6 | Change Station
CLOSE
Current Station
Personal Weather Station
Location: Rohnert Park, CA
Elevation: 108 ft
Nearby Weather Stations

Elev 108 ft 38.34 °N, 122.70 °W | Updated 17 seconds ago

Mostly Cloudy
Mostly Cloudy
59.5 °F
Feels Like 59.5 °F
N
0.0
Wind Variable Wind from SSW
Gusts 0.0 mph

Today
High -- | Low -- °F
--% Chance of Precip.
Yesterday
High -- | Low -- °F
Precip. -- in
7:27 AM 6:21 PM
Waning Crescent, 0% visible
Pressure 30.08 in
Visibility 5.0 miles
Clouds Clear
Dew Point 58 °F
Humidity 96%
Rainfall 0.00 in
Snow Depth Not available.
UV 0 out of 12
Pollen 1.70 out of 12
Air Quality Not available.
Flu Activity Sporadic
METAR KO69 231455Z AUTO 00000KT 5SM CLR 14/13 A3008 RMK AO1

More Conditions Fewer Conditions

Pressure 30.08 in
Visibility 5.0 miles
Clouds Clear
Dew Point 58 °F
Humidity 96%
Rainfall 0.00 in
Snow Depth Not available.
UV 0 out of 12
Pollen 1.70 out of 12
Air Quality Not available.
Flu Activity Sporadic
METAR KO69 231455Z AUTO 00000KT 5SM CLR 14/13 A3008 RMK AO1

More Conditions Fewer Conditions

10-Day Weather Forecast

Almanac

Astronomy

Oct. 23, 2014 Rise Set
Actual Time 7:27 AM PDT 6:21 PM PDT
Civil Twilight 7:00 AM PDT 6:48 PM PDT
Nautical Twilight 6:29 AM PDT 7:19 PM PDT
Astronomical Twilight 5:59 AM PDT 7:50 PM PDT
Moon 7:13 AM PDT 6:26 PM PDT
Length of Visible Light 11h 48m
Length of Day
10h 54m
Tomorrow will be 2m 18s shorter.
Waning Crescent, 0% of the Moon is Illuminated
Today
Waning Crescent
Oct 23
New
Oct 30
First Quarter
Nov 6
Full
Nov 14
Last Quarter

Today's Extremes

State Highs State Lows

Community

WunderPhotos

Upload Photos

1,764,280 photos uploaded!

Nearby

Air Quality

  Air Quality AQ Index Pollutant
Thursday Good
PM2.5
Friday Good
PM2.5
Saturday Good
PM2.5
Sunday Good
PM2.5
Monday Good
PM2.5

Snow Depth

Station Depth Elevation
CSS Lab 0 in 6900 ft
Squaw Valley 0 in 8200 ft
Rubicon #2 1 in 7500 ft
Echo Peak 1 in 7800 ft
Independence Lake 0 in 8450 ft

Earthquake Activity

City Distance Mag. Time & Date
No recent earthquake activity has been reported nearby.
Minimum magnitude displayed is 2.5.

Coastal Water Temperatures

Place Temperature
Point Reyes, CA 61.0 °F
Arena Cove, CA 59.0 °F
San Francisco, CA 63.0 °F
Richmond, CA 64.0 °F

Nearby Weather Stations